Terminal Aerodrome Forecast
Issued by NWS

Home | Current Version | Previous Version | Graphics & Text | Print | Product List | Glossary On
Versions: 1 2 3 4 5 6 7 8 9 10 11 12 13 14 15 16 17 18 19
000
FTUS43 KABR 311722
TAFATY
TAF
KATY 311722Z 3118/0118 15014KT P6SM SCT035 OVC080
      TEMPO 3120/3122 P6SM -SHRA
     FM010400 13010KT P6SM BKN080=

USA.gov is the U.S. government's official web portal to all federal, state and local government web resources and services.